createdAt,value
2023-04-22T00:01:16.680Z,96.29
2023-04-22T00:04:02.625Z,95.28
2023-04-22T00:06:48.076Z,95.72
2023-04-22T00:09:33.726Z,97.40
2023-04-22T00:12:18.829Z,98.30
2023-04-22T00:15:05.171Z,99.17
2023-04-22T00:17:50.750Z,100.00
2023-04-22T00:20:35.737Z,100.00
2023-04-22T00:23:20.641Z,100.00
2023-04-22T00:26:06.055Z,100.00
2023-04-22T00:28:51.338Z,100.00
2023-04-22T00:31:36.385Z,100.00
2023-04-22T00:34:21.563Z,100.00
2023-04-22T00:37:06.520Z,100.00
2023-04-22T00:39:51.898Z,100.00
2023-04-22T00:42:37.650Z,100.00
2023-04-22T00:45:23.002Z,100.00
2023-04-22T00:48:08.370Z,100.00
2023-04-22T00:50:53.742Z,100.00
2023-04-22T00:53:38.718Z,100.00
2023-04-22T00:56:26.330Z,100.00
2023-04-22T00:59:12.531Z,100.00
2023-04-22T01:01:57.967Z,100.00
2023-04-22T01:04:43.429Z,100.00
2023-04-22T01:07:28.585Z,100.00
2023-04-22T01:10:13.720Z,100.00
2023-04-22T01:12:58.687Z,100.00
2023-04-22T01:15:44.181Z,100.00
2023-04-22T01:18:29.748Z,100.00
2023-04-22T01:21:14.754Z,100.00
2023-04-22T01:24:01.563Z,100.00
2023-04-22T01:26:48.216Z,100.00
2023-04-22T01:29:33.817Z,100.00
2023-04-22T01:32:19.057Z,100.00
2023-04-22T01:35:04.432Z,100.00
2023-04-22T01:37:49.398Z,100.00
2023-04-22T01:40:34.723Z,100.00
2023-04-22T01:43:20.166Z,100.00
2023-04-22T01:46:06.405Z,100.00
2023-04-22T01:48:51.725Z,100.00
2023-04-22T01:51:36.752Z,100.00
2023-04-22T01:54:21.861Z,100.00
2023-04-22T01:57:12.028Z,100.00
2023-04-22T01:59:57.248Z,100.00
2023-04-22T02:02:42.666Z,100.00
2023-04-22T02:05:27.921Z,100.00
2023-04-22T02:08:12.809Z,100.00
2023-04-22T02:10:57.657Z,100.00
2023-04-22T02:13:42.650Z,100.00
2023-04-22T02:16:28.029Z,100.00
2023-04-22T02:19:13.485Z,100.00
2023-04-22T02:21:59.040Z,100.00
2023-04-22T02:24:44.190Z,100.00
2023-04-22T02:27:29.777Z,100.00
2023-04-22T02:30:15.047Z,100.00
2023-04-22T02:32:59.871Z,100.00
2023-04-22T02:35:45.467Z,100.00
2023-04-22T02:38:30.555Z,100.00
2023-04-22T02:41:15.361Z,100.00
2023-04-22T02:44:00.783Z,100.00
2023-04-22T02:46:46.057Z,99.47
2023-04-22T02:49:31.248Z,99.31
2023-04-22T02:52:16.190Z,98.78
2023-04-22T02:55:01.660Z,98.14
2023-04-22T02:57:46.643Z,97.48
2023-04-22T03:00:32.014Z,97.20
2023-04-22T03:03:17.528Z,97.23
2023-04-22T03:06:02.665Z,96.08
2023-04-22T03:08:48.133Z,95.58
2023-04-22T03:11:33.357Z,95.29
2023-04-22T03:14:18.635Z,93.64
2023-04-22T03:17:04.035Z,92.17
2023-04-22T03:19:49.420Z,91.43
2023-04-22T03:22:34.188Z,91.47
2023-04-22T03:25:19.782Z,91.31
2023-04-22T03:28:05.003Z,90.87
2023-04-22T03:30:50.490Z,90.18
2023-04-22T03:33:35.354Z,89.91
2023-04-22T03:36:20.326Z,90.60
2023-04-22T03:39:05.855Z,90.49
2023-04-22T03:41:51.056Z,91.15
2023-04-22T03:44:36.063Z,91.56
2023-04-22T03:47:21.376Z,91.46
2023-04-22T03:50:07.324Z,91.95
2023-04-22T03:52:52.815Z,91.11
2023-04-22T03:55:38.061Z,91.38
2023-04-22T03:58:23.313Z,91.09
2023-04-22T04:01:08.837Z,91.14
2023-04-22T04:03:54.416Z,91.24
2023-04-22T04:06:39.666Z,91.50
2023-04-22T04:09:24.655Z,91.34
2023-04-22T04:12:09.855Z,90.96
2023-04-22T04:14:55.086Z,90.66
2023-04-22T04:17:40.222Z,90.83
2023-04-22T04:20:25.543Z,91.06
2023-04-22T04:23:10.888Z,91.36
2023-04-22T04:25:56.321Z,91.38
2023-04-22T04:28:41.643Z,91.97
2023-04-22T04:31:28.466Z,92.23
2023-04-22T04:34:13.758Z,92.25
2023-04-22T04:36:59.249Z,92.05
2023-04-22T04:39:44.715Z,92.17
2023-04-22T04:42:30.013Z,92.11
2023-04-22T04:45:15.347Z,91.89
2023-04-22T04:48:00.646Z,91.34
2023-04-22T04:50:46.291Z,91.18
2023-04-22T04:53:32.446Z,91.54
2023-04-22T04:56:17.760Z,92.01
2023-04-22T04:59:03.162Z,91.52
2023-04-22T05:01:48.567Z,91.43
2023-04-22T05:04:33.820Z,91.53
2023-04-22T05:07:19.242Z,91.88
2023-04-22T05:10:04.883Z,91.86
2023-04-22T05:12:50.378Z,91.40
2023-04-22T05:15:35.768Z,91.19
2023-04-22T05:18:21.752Z,91.06
2023-04-22T05:21:07.186Z,90.37
2023-04-22T05:23:52.302Z,89.58
2023-04-22T05:26:37.806Z,89.64
2023-04-22T05:29:22.913Z,88.96
2023-04-22T05:32:08.562Z,88.81
2023-04-22T05:34:53.799Z,88.63
2023-04-22T05:37:39.223Z,88.55
2023-04-22T05:40:24.462Z,87.53
2023-04-22T05:43:09.747Z,86.89
2023-04-22T05:45:54.722Z,86.46
2023-04-22T05:48:40.048Z,86.21
2023-04-22T05:51:25.439Z,86.15
2023-04-22T05:54:10.792Z,86.11
2023-04-22T05:56:56.467Z,85.83
2023-04-22T05:59:42.260Z,84.99
2023-04-22T06:02:27.898Z,85.09
2023-04-22T06:05:13.296Z,85.32
2023-04-22T06:07:58.491Z,85.29
2023-04-22T06:10:43.765Z,84.72
2023-04-22T06:13:29.189Z,84.59
2023-04-22T06:16:14.681Z,84.10
2023-04-22T06:19:00.106Z,83.40
2023-04-22T06:21:45.354Z,82.84
2023-04-22T06:24:30.842Z,82.05
2023-04-22T06:27:16.156Z,81.59
2023-04-22T06:30:01.598Z,81.14
2023-04-22T06:32:47.243Z,80.16
2023-04-22T06:35:32.549Z,79.67
2023-04-22T06:38:17.794Z,79.99
2023-04-22T06:41:03.078Z,79.77
2023-04-22T06:43:48.434Z,79.67
2023-04-22T06:46:33.915Z,79.88
2023-04-22T06:49:19.323Z,79.65
2023-04-22T06:52:05.695Z,78.95
2023-04-22T06:54:51.056Z,78.13
2023-04-22T06:57:36.457Z,78.22
2023-04-22T07:00:21.724Z,78.09
2023-04-22T07:03:07.025Z,78.05
2023-04-22T07:05:52.327Z,78.24
2023-04-22T07:08:37.545Z,78.00
2023-04-22T07:11:23.049Z,78.33
2023-04-22T07:14:08.205Z,78.91
2023-04-22T07:16:53.937Z,77.96
2023-04-22T07:19:39.574Z,77.46
2023-04-22T07:22:24.811Z,76.69
2023-04-22T07:25:10.164Z,76.72
2023-04-22T07:27:55.269Z,76.17
2023-04-22T07:30:40.652Z,76.05
2023-04-22T07:33:25.987Z,75.87
2023-04-22T07:36:11.409Z,75.77
2023-04-22T07:38:56.415Z,75.18
2023-04-22T07:41:41.698Z,75.13
2023-04-22T07:44:27.120Z,74.57
2023-04-22T07:47:12.711Z,73.91
2023-04-22T07:49:57.895Z,72.66
2023-04-22T07:52:43.375Z,72.79
2023-04-22T07:55:28.750Z,71.58
2023-04-22T07:58:14.224Z,71.49
2023-04-22T08:00:59.664Z,70.74
2023-04-22T08:03:45.248Z,70.55
2023-04-22T08:06:30.632Z,70.19
2023-04-22T08:09:16.047Z,69.55
2023-04-22T08:12:01.557Z,69.50
2023-04-22T08:14:46.540Z,69.01
2023-04-22T08:17:32.208Z,68.41
2023-04-22T08:20:21.769Z,67.37
2023-04-22T08:23:07.082Z,67.04
2023-04-22T08:25:52.473Z,66.13
2023-04-22T08:28:38.210Z,65.33
2023-04-22T08:31:23.436Z,65.64
2023-04-22T08:34:13.487Z,63.16
2023-04-22T08:36:58.992Z,62.56
2023-04-22T08:39:44.104Z,61.18
2023-04-22T08:42:29.623Z,60.87
2023-04-22T08:45:15.521Z,59.70
2023-04-22T08:48:02.479Z,59.51
2023-04-22T08:50:48.422Z,58.88
2023-04-22T08:53:34.070Z,58.39
2023-04-22T08:56:20.548Z,57.21
2023-04-22T08:59:05.733Z,58.48
2023-04-22T09:01:53.090Z,58.99
2023-04-22T09:04:38.420Z,59.75
2023-04-22T09:07:26.784Z,58.30
2023-04-22T09:10:11.861Z,58.15
2023-04-22T09:12:58.878Z,59.11
2023-04-22T09:15:44.215Z,56.61
2023-04-22T09:18:29.658Z,56.02
2023-04-22T09:21:15.034Z,55.90
2023-04-22T09:24:00.524Z,56.87
2023-04-22T09:26:46.257Z,57.49
2023-04-22T09:29:31.610Z,56.40
2023-04-22T09:32:17.612Z,57.25
2023-04-22T09:35:02.744Z,56.74
2023-04-22T09:37:51.788Z,57.51
2023-04-22T09:40:40.972Z,57.19
2023-04-22T09:43:26.342Z,57.53
2023-04-22T09:46:11.660Z,55.75
2023-04-22T09:48:58.819Z,55.88
2023-04-22T09:51:44.078Z,56.36
2023-04-22T09:54:29.256Z,56.67
2023-04-22T09:57:14.659Z,56.03
2023-04-22T09:59:59.991Z,55.46
2023-04-22T10:02:45.552Z,54.55
2023-04-22T10:05:31.293Z,54.67
2023-04-22T10:08:17.025Z,54.22
2023-04-22T10:11:02.027Z,52.57
2023-04-22T10:13:47.311Z,52.89
2023-04-22T10:16:34.714Z,52.63
2023-04-22T10:19:21.962Z,51.84
2023-04-22T10:22:10.843Z,51.86
2023-04-22T10:24:56.074Z,52.03
2023-04-22T10:27:41.882Z,52.32
2023-04-22T10:30:29.224Z,51.76
2023-04-22T10:33:20.786Z,52.57
2023-04-22T10:36:12.275Z,51.96
2023-04-22T10:38:57.602Z,52.61
2023-04-22T10:42:08.614Z,51.72
2023-04-22T10:45:00.871Z,51.41
2023-04-22T10:47:46.087Z,51.06
2023-04-22T10:50:32.084Z,50.00
2023-04-22T10:53:36.776Z,49.89
2023-04-22T10:56:21.769Z,49.72
2023-04-22T10:59:16.763Z,49.16
2023-04-22T11:02:03.375Z,49.57
2023-04-22T11:04:49.113Z,48.48
2023-04-22T11:07:34.360Z,49.05
2023-04-22T11:10:32.036Z,49.36
2023-04-22T11:13:21.752Z,48.10
2023-04-22T11:16:08.775Z,48.44
2023-04-22T11:19:11.468Z,47.55
2023-04-22T11:21:56.947Z,47.83
2023-04-22T11:24:54.303Z,47.60
2023-04-22T11:27:41.245Z,47.46
2023-04-22T11:30:28.488Z,47.10
2023-04-22T11:33:15.157Z,46.74
2023-04-22T11:36:00.729Z,46.68
2023-04-22T11:39:08.646Z,46.01
2023-04-22T11:41:53.850Z,47.03
2023-04-22T11:44:39.693Z,47.43
2023-04-22T11:47:25.015Z,46.45
2023-04-22T11:50:11.837Z,46.96
2023-04-22T11:53:15.633Z,46.17
2023-04-22T11:56:02.788Z,46.16
2023-04-22T11:58:47.988Z,45.42
2023-04-22T12:01:33.305Z,44.39
2023-04-22T12:04:21.749Z,44.59
2023-04-22T12:07:07.463Z,43.64
2023-04-22T12:09:56.403Z,44.27
2023-04-22T12:12:41.893Z,43.56
2023-04-22T12:15:27.096Z,43.59
2023-04-22T12:18:12.028Z,43.86
2023-04-22T12:21:06.782Z,43.74
2023-04-22T12:23:54.759Z,42.49
2023-04-22T12:26:39.895Z,42.89
2023-04-22T12:29:33.335Z,42.63
2023-04-22T12:32:20.382Z,43.20
2023-04-22T12:35:05.604Z,43.67
2023-04-22T12:37:52.341Z,43.89
2023-04-22T12:40:37.580Z,44.65
2023-04-22T12:43:22.898Z,45.18
2023-04-22T12:46:09.078Z,45.99
2023-04-22T12:48:54.676Z,45.59
2023-04-22T12:51:40.200Z,45.82
2023-04-22T12:54:25.478Z,46.63
2023-04-22T12:57:10.493Z,46.31
2023-04-22T12:59:55.865Z,45.92
2023-04-22T13:02:42.690Z,45.96
2023-04-22T13:05:28.238Z,44.42
2023-04-22T13:08:13.443Z,44.33
2023-04-22T13:10:58.792Z,44.03
2023-04-22T13:13:44.200Z,43.86
2023-04-22T13:16:29.764Z,44.69
2023-04-22T13:19:14.828Z,44.99
2023-04-22T13:21:59.911Z,45.21
2023-04-22T13:24:45.565Z,45.57
2023-04-22T13:27:30.635Z,45.42
2023-04-22T13:30:16.043Z,45.28
2023-04-22T13:33:01.493Z,45.97
2023-04-22T13:35:46.871Z,46.12
2023-04-22T13:38:32.303Z,45.98
2023-04-22T13:41:17.228Z,46.23
2023-04-22T13:44:02.846Z,44.88
2023-04-22T13:46:48.229Z,42.53
2023-04-22T13:49:33.697Z,43.31
2023-04-22T13:52:19.078Z,41.96
2023-04-22T13:55:04.746Z,42.81
2023-04-22T13:57:51.266Z,43.11
2023-04-22T14:00:36.291Z,43.78
2023-04-22T14:03:22.019Z,45.04
2023-04-22T14:06:07.656Z,44.97
2023-04-22T14:08:52.748Z,44.30
2023-04-22T14:11:37.734Z,44.95
2023-04-22T14:14:23.052Z,44.65
2023-04-22T14:17:08.256Z,44.70
2023-04-22T14:19:53.503Z,44.40
2023-04-22T14:22:38.919Z,43.86
2023-04-22T14:25:24.562Z,44.37
2023-04-22T14:28:10.552Z,44.91
2023-04-22T14:30:55.725Z,46.08
2023-04-22T14:33:40.815Z,46.38
2023-04-22T14:36:25.955Z,45.65
2023-04-22T14:39:10.957Z,45.90
2023-04-22T14:41:56.352Z,46.79
2023-04-22T14:44:42.704Z,46.92
2023-04-22T14:47:28.156Z,46.85
2023-04-22T14:50:13.503Z,46.80
2023-04-22T14:52:58.804Z,46.34
2023-04-22T14:55:43.781Z,46.82
2023-04-22T14:58:29.253Z,47.37
2023-04-22T15:01:14.677Z,47.05
2023-04-22T15:04:00.317Z,46.95
2023-04-22T15:06:45.537Z,47.70
2023-04-22T15:09:31.042Z,47.78
2023-04-22T15:12:17.030Z,47.47
2023-04-22T15:15:02.333Z,47.90
2023-04-22T15:17:47.547Z,48.44
2023-04-22T15:20:32.464Z,48.18
2023-04-22T15:23:17.838Z,47.96
2023-04-22T15:26:02.998Z,48.16
2023-04-22T15:28:48.477Z,48.19
2023-04-22T15:31:33.594Z,48.90
2023-04-22T15:34:18.847Z,48.33
2023-04-22T15:37:04.309Z,49.01
2023-04-22T15:39:49.587Z,49.00
2023-04-22T15:42:34.908Z,49.11
2023-04-22T15:45:20.317Z,49.84
2023-04-22T15:48:05.825Z,50.03
2023-04-22T15:50:51.026Z,49.41
2023-04-22T15:53:36.989Z,49.07
2023-04-22T15:56:22.005Z,49.71
2023-04-22T15:59:06.908Z,50.23
2023-04-22T16:01:52.247Z,51.62
2023-04-22T16:04:37.687Z,52.91
2023-04-22T16:07:22.959Z,53.82
2023-04-22T16:10:09.022Z,54.89
2023-04-22T16:12:53.944Z,54.98
2023-04-22T16:15:38.922Z,54.05
2023-04-22T16:18:24.983Z,54.38
2023-04-22T16:21:10.062Z,55.64
2023-04-22T16:23:55.345Z,57.32
2023-04-22T16:26:40.180Z,58.43
2023-04-22T16:29:25.699Z,59.60
2023-04-22T16:32:11.581Z,59.73
2023-04-22T16:34:57.133Z,61.26
2023-04-22T16:37:43.171Z,62.69
2023-04-22T16:40:28.542Z,64.16
2023-04-22T16:43:13.627Z,67.68
2023-04-22T16:45:59.228Z,66.70
2023-04-22T16:48:44.271Z,69.33
2023-04-22T16:51:29.607Z,69.91
2023-04-22T16:54:14.918Z,70.93
2023-04-22T16:56:59.768Z,71.17
2023-04-22T16:59:45.103Z,71.74
2023-04-22T17:02:30.684Z,71.80
2023-04-22T17:05:15.965Z,72.08
2023-04-22T17:08:01.255Z,72.17
2023-04-22T17:10:47.095Z,72.87
2023-04-22T17:13:32.306Z,73.73
2023-04-22T17:16:18.118Z,74.22
2023-04-22T17:19:03.373Z,74.40
2023-04-22T17:21:48.294Z,75.95
2023-04-22T17:24:33.783Z,76.84
2023-04-22T17:27:19.094Z,76.47
2023-04-22T17:30:04.493Z,76.10
2023-04-22T17:32:49.836Z,76.53
2023-04-22T17:35:35.042Z,76.93
2023-04-22T17:38:20.254Z,78.34
2023-04-22T17:41:05.654Z,78.97
2023-04-22T17:43:51.391Z,79.69
2023-04-22T17:46:36.568Z,80.31
2023-04-22T17:49:21.870Z,80.99
2023-04-22T17:52:07.194Z,81.92
2023-04-22T17:54:52.747Z,81.80
2023-04-22T17:57:38.115Z,81.08
2023-04-22T18:00:36.652Z,81.68
2023-04-22T18:03:22.807Z,81.17
2023-04-22T18:06:08.361Z,81.26
2023-04-22T18:08:55.922Z,81.42
2023-04-22T18:11:41.720Z,81.83
2023-04-22T18:14:26.785Z,81.40
2023-04-22T18:17:11.953Z,81.91
2023-04-22T18:20:09.881Z,81.81
2023-04-22T18:22:59.676Z,81.38
2023-04-22T18:25:45.100Z,81.86
2023-04-22T18:28:30.627Z,82.78
2023-04-22T18:31:16.032Z,82.98
2023-04-22T18:34:01.414Z,83.84
2023-04-22T18:36:46.829Z,83.82
2023-04-22T18:39:32.386Z,84.07
2023-04-22T18:42:18.281Z,84.30
2023-04-22T18:45:04.755Z,84.44
2023-04-22T18:47:50.229Z,85.03
2023-04-22T18:50:35.501Z,85.18
2023-04-22T18:53:21.047Z,85.38
2023-04-22T18:56:06.418Z,85.53
2023-04-22T18:58:51.789Z,86.58
2023-04-22T19:01:37.276Z,86.83
2023-04-22T19:04:22.812Z,87.09
2023-04-22T19:07:13.506Z,87.22
2023-04-22T19:10:02.108Z,88.54
2023-04-22T19:12:47.629Z,88.89
2023-04-22T19:15:32.896Z,89.70
2023-04-22T19:18:18.300Z,90.46
2023-04-22T19:21:03.920Z,91.18
2023-04-22T19:23:49.682Z,91.63
2023-04-22T19:26:35.279Z,92.23
2023-04-22T19:29:20.469Z,93.89
2023-04-22T19:32:05.870Z,95.90
2023-04-22T19:34:50.862Z,97.97
2023-04-22T19:37:36.197Z,100.00
2023-04-22T19:40:21.653Z,100.00
2023-04-22T19:43:07.882Z,100.00
2023-04-22T19:45:52.953Z,100.00
2023-04-22T19:48:38.769Z,100.00
2023-04-22T19:51:24.468Z,100.00
2023-04-22T19:54:11.233Z,100.00
2023-04-22T19:56:56.747Z,100.00
2023-04-22T19:59:43.365Z,100.00
2023-04-22T20:02:28.938Z,100.00
2023-04-22T20:05:14.832Z,100.00
2023-04-22T20:08:00.545Z,100.00
2023-04-22T20:10:47.865Z,100.00
2023-04-22T20:14:16.254Z,100.00
2023-04-22T20:17:16.781Z,100.00
2023-04-22T20:20:13.929Z,100.00
2023-04-22T20:23:01.767Z,100.00
2023-04-22T20:25:47.175Z,100.00
2023-04-22T20:28:44.715Z,100.00
2023-04-22T20:31:30.327Z,100.00
2023-04-22T20:34:15.503Z,100.00
2023-04-22T20:37:01.587Z,100.00
2023-04-22T20:43:32.189Z,100.00
2023-04-22T20:46:17.670Z,100.00
2023-04-22T20:49:03.161Z,100.00
2023-04-22T20:51:48.589Z,100.00
2023-04-22T20:54:35.313Z,100.00
2023-04-22T20:57:21.223Z,100.00
2023-04-22T21:00:07.326Z,100.00
2023-04-22T21:02:53.103Z,100.00
2023-04-22T21:05:38.668Z,100.00
2023-04-22T21:08:25.201Z,100.00
2023-04-22T21:11:10.772Z,100.00
2023-04-22T21:13:55.939Z,100.00
2023-04-22T21:16:43.188Z,100.00
2023-04-22T21:19:35.163Z,100.00
2023-04-22T21:22:21.542Z,100.00
2023-04-22T21:25:07.495Z,100.00
2023-04-22T21:27:53.310Z,100.00
2023-04-22T21:30:39.076Z,100.00
2023-04-22T21:33:24.106Z,100.00
2023-04-22T21:36:09.571Z,100.00
2023-04-22T21:38:54.914Z,100.00
2023-04-22T21:41:40.713Z,100.00
2023-04-22T21:44:26.191Z,100.00
2023-04-22T21:47:11.654Z,100.00
2023-04-22T21:49:57.216Z,100.00
2023-04-22T21:52:42.686Z,100.00
2023-04-22T21:55:27.925Z,100.00
2023-04-22T21:58:13.102Z,100.00
2023-04-22T22:00:58.141Z,100.00
2023-04-22T22:03:43.722Z,100.00
2023-04-22T22:06:30.737Z,100.00
2023-04-22T22:09:16.348Z,100.00
2023-04-22T22:12:01.356Z,100.00
2023-04-22T22:14:46.886Z,100.00
2023-04-22T22:17:32.372Z,100.00
2023-04-22T22:20:17.600Z,100.00
2023-04-22T22:23:03.052Z,100.00
2023-04-22T22:25:49.291Z,100.00
2023-04-22T22:28:34.648Z,100.00
2023-04-22T22:31:20.016Z,100.00
2023-04-22T22:34:05.337Z,100.00
2023-04-22T22:36:50.695Z,100.00
2023-04-22T22:39:36.655Z,100.00
2023-04-22T22:42:22.244Z,100.00
2023-04-22T22:45:08.235Z,100.00
2023-04-22T22:47:53.541Z,100.00
2023-04-22T22:50:38.836Z,100.00
2023-04-22T22:53:24.190Z,100.00
2023-04-22T22:56:09.768Z,100.00
2023-04-22T22:58:55.083Z,100.00
2023-04-22T23:01:40.484Z,100.00
2023-04-22T23:04:27.526Z,100.00
2023-04-22T23:07:13.156Z,100.00
2023-04-22T23:09:58.697Z,100.00
2023-04-22T23:12:44.031Z,100.00
2023-04-22T23:15:29.483Z,100.00
2023-04-22T23:18:16.705Z,100.00
2023-04-22T23:21:02.514Z,100.00
2023-04-22T23:23:49.303Z,100.00
2023-04-22T23:26:34.906Z,100.00
2023-04-22T23:29:20.517Z,100.00
2023-04-22T23:32:07.540Z,100.00
2023-04-22T23:34:53.685Z,100.00
2023-04-22T23:37:42.956Z,100.00
2023-04-22T23:40:27.993Z,100.00
2023-04-22T23:43:13.631Z,100.00
2023-04-22T23:45:58.735Z,100.00
2023-04-22T23:48:43.850Z,100.00
2023-04-22T23:51:28.884Z,100.00
2023-04-22T23:54:14.203Z,100.00
2023-04-22T23:57:00.022Z,100.00
2023-04-22T23:59:45.526Z,100.00
